sensor_id;sensor_type;location;lat;lon;timestamp;P1;durP1;ratioP1;P2;durP2;ratioP2
9473;SDS011;8865;47.636;7.692;2023-05-29T00:00:50;5.83;;;4.63;;
9473;SDS011;8865;47.636;7.692;2023-05-29T00:03:18;6.33;;;4.50;;
9473;SDS011;8865;47.636;7.692;2023-05-29T00:05:44;6.90;;;4.77;;
9473;SDS011;8865;47.636;7.692;2023-05-29T00:08:10;6.83;;;5.20;;
9473;SDS011;8865;47.636;7.692;2023-05-29T00:10:36;7.13;;;4.83;;
9473;SDS011;8865;47.636;7.692;2023-05-29T00:13:02;7.13;;;4.50;;
9473;SDS011;8865;47.636;7.692;2023-05-29T00:15:29;7.93;;;4.80;;
9473;SDS011;8865;47.636;7.692;2023-05-29T00:17:55;6.53;;;4.73;;
9473;SDS011;8865;47.636;7.692;2023-05-29T00:20:21;7.33;;;5.23;;
9473;SDS011;8865;47.636;7.692;2023-05-29T00:22:47;6.40;;;4.53;;
9473;SDS011;8865;47.636;7.692;2023-05-29T00:25:14;8.30;;;4.73;;
9473;SDS011;8865;47.636;7.692;2023-05-29T00:27:41;7.37;;;4.57;;
9473;SDS011;8865;47.636;7.692;2023-05-29T00:30:07;5.30;;;4.47;;
9473;SDS011;8865;47.636;7.692;2023-05-29T00:32:33;6.70;;;4.70;;
9473;SDS011;8865;47.636;7.692;2023-05-29T00:34:59;6.77;;;4.50;;
9473;SDS011;8865;47.636;7.692;2023-05-29T00:37:25;6.93;;;4.50;;
9473;SDS011;8865;47.636;7.692;2023-05-29T00:39:52;6.20;;;4.80;;
9473;SDS011;8865;47.636;7.692;2023-05-29T00:42:18;5.77;;;4.90;;
9473;SDS011;8865;47.636;7.692;2023-05-29T00:44:44;7.20;;;5.13;;
9473;SDS011;8865;47.636;7.692;2023-05-29T00:47:10;7.27;;;5.10;;
9473;SDS011;8865;47.636;7.692;2023-05-29T00:49:36;7.20;;;4.93;;
9473;SDS011;8865;47.636;7.692;2023-05-29T00:52:03;7.53;;;5.07;;
9473;SDS011;8865;47.636;7.692;2023-05-29T00:54:35;6.17;;;5.00;;
9473;SDS011;8865;47.636;7.692;2023-05-29T00:57:02;5.73;;;4.60;;
9473;SDS011;8865;47.636;7.692;2023-05-29T00:59:31;7.67;;;5.30;;
9473;SDS011;8865;47.636;7.692;2023-05-29T01:01:59;6.37;;;5.27;;
9473;SDS011;8865;47.636;7.692;2023-05-29T01:04:27;9.20;;;5.37;;
9473;SDS011;8865;47.636;7.692;2023-05-29T01:06:53;5.90;;;4.70;;
9473;SDS011;8865;47.636;7.692;2023-05-29T01:09:21;7.60;;;5.00;;
9473;SDS011;8865;47.636;7.692;2023-05-29T01:15:09;6.30;;;5.10;;
9473;SDS011;8865;47.636;7.692;2023-05-29T01:20:42;8.70;;;4.93;;
9473;SDS011;8865;47.636;7.692;2023-05-29T01:26:10;6.33;;;5.07;;
9473;SDS011;8865;47.636;7.692;2023-05-29T01:28:56;5.90;;;4.90;;
9473;SDS011;8865;47.636;7.692;2023-05-29T01:31:26;5.33;;;4.43;;
9473;SDS011;8865;47.636;7.692;2023-05-29T01:33:53;6.97;;;5.07;;
9473;SDS011;8865;47.636;7.692;2023-05-29T01:36:21;8.03;;;4.73;;
9473;SDS011;8865;47.636;7.692;2023-05-29T01:38:48;6.73;;;4.90;;
9473;SDS011;8865;47.636;7.692;2023-05-29T01:41:16;6.47;;;5.03;;
9473;SDS011;8865;47.636;7.692;2023-05-29T01:43:43;6.57;;;5.10;;
9473;SDS011;8865;47.636;7.692;2023-05-29T01:46:11;6.23;;;5.00;;
9473;SDS011;8865;47.636;7.692;2023-05-29T01:48:38;7.47;;;5.40;;
9473;SDS011;8865;47.636;7.692;2023-05-29T01:51:06;6.70;;;4.90;;
9473;SDS011;8865;47.636;7.692;2023-05-29T01:53:33;7.63;;;5.47;;
9473;SDS011;8865;47.636;7.692;2023-05-29T01:55:59;6.77;;;5.30;;
9473;SDS011;8865;47.636;7.692;2023-05-29T01:58:25;13.20;;;4.90;;
9473;SDS011;8865;47.636;7.692;2023-05-29T02:00:53;6.70;;;5.00;;
9473;SDS011;8865;47.636;7.692;2023-05-29T02:03:21;5.40;;;4.87;;
9473;SDS011;8865;47.636;7.692;2023-05-29T02:05:47;6.20;;;5.00;;
9473;SDS011;8865;47.636;7.692;2023-05-29T02:08:12;6.07;;;5.07;;
9473;SDS011;8865;47.636;7.692;2023-05-29T02:10:38;8.30;;;5.00;;
9473;SDS011;8865;47.636;7.692;2023-05-29T02:13:04;6.43;;;4.93;;
9473;SDS011;8865;47.636;7.692;2023-05-29T02:15:30;6.47;;;4.73;;
9473;SDS011;8865;47.636;7.692;2023-05-29T02:17:56;6.33;;;5.50;;
9473;SDS011;8865;47.636;7.692;2023-05-29T02:20:23;7.97;;;5.10;;
9473;SDS011;8865;47.636;7.692;2023-05-29T02:22:50;6.00;;;4.80;;
9473;SDS011;8865;47.636;7.692;2023-05-29T02:25:16;5.63;;;4.57;;
9473;SDS011;8865;47.636;7.692;2023-05-29T02:27:41;6.60;;;4.70;;
9473;SDS011;8865;47.636;7.692;2023-05-29T02:30:07;7.73;;;5.20;;
9473;SDS011;8865;47.636;7.692;2023-05-29T02:32:34;6.67;;;5.00;;
9473;SDS011;8865;47.636;7.692;2023-05-29T02:35:00;6.53;;;4.90;;
9473;SDS011;8865;47.636;7.692;2023-05-29T02:37:26;6.30;;;5.10;;
9473;SDS011;8865;47.636;7.692;2023-05-29T02:39:52;7.63;;;5.10;;
9473;SDS011;8865;47.636;7.692;2023-05-29T02:42:18;6.37;;;4.87;;
9473;SDS011;8865;47.636;7.692;2023-05-29T02:44:44;6.97;;;4.87;;
9473;SDS011;8865;47.636;7.692;2023-05-29T02:47:10;6.60;;;4.93;;
9473;SDS011;8865;47.636;7.692;2023-05-29T02:49:36;5.00;;;4.40;;
9473;SDS011;8865;47.636;7.692;2023-05-29T02:52:02;6.67;;;5.10;;
9473;SDS011;8865;47.636;7.692;2023-05-29T02:54:28;7.33;;;5.27;;
9473;SDS011;8865;47.636;7.692;2023-05-29T02:56:54;6.70;;;5.17;;
9473;SDS011;8865;47.636;7.692;2023-05-29T02:59:20;7.53;;;5.23;;
9473;SDS011;8865;47.636;7.692;2023-05-29T03:01:46;6.63;;;5.03;;
9473;SDS011;8865;47.636;7.692;2023-05-29T03:04:13;7.10;;;5.17;;
9473;SDS011;8865;47.636;7.692;2023-05-29T03:06:40;7.37;;;5.23;;
9473;SDS011;8865;47.636;7.692;2023-05-29T03:09:06;6.30;;;5.00;;
9473;SDS011;8865;47.636;7.692;2023-05-29T03:11:32;8.00;;;5.60;;
9473;SDS011;8865;47.636;7.692;2023-05-29T03:13:58;7.80;;;4.83;;
9473;SDS011;8865;47.636;7.692;2023-05-29T03:16:24;7.27;;;4.73;;
9473;SDS011;8865;47.636;7.692;2023-05-29T03:18:50;6.40;;;4.70;;
9473;SDS011;8865;47.636;7.692;2023-05-29T03:21:16;6.60;;;5.17;;
9473;SDS011;8865;47.636;7.692;2023-05-29T03:23:43;7.33;;;4.70;;
9473;SDS011;8865;47.636;7.692;2023-05-29T03:26:08;5.73;;;4.83;;
9473;SDS011;8865;47.636;7.692;2023-05-29T03:28:36;7.37;;;5.30;;
9473;SDS011;8865;47.636;7.692;2023-05-29T03:31:02;8.73;;;5.67;;
9473;SDS011;8865;47.636;7.692;2023-05-29T03:33:28;6.83;;;4.80;;
9473;SDS011;8865;47.636;7.692;2023-05-29T03:35:53;8.50;;;5.50;;
9473;SDS011;8865;47.636;7.692;2023-05-29T03:38:20;6.37;;;5.10;;
9473;SDS011;8865;47.636;7.692;2023-05-29T03:40:46;7.63;;;4.90;;
9473;SDS011;8865;47.636;7.692;2023-05-29T03:43:13;6.43;;;4.90;;
9473;SDS011;8865;47.636;7.692;2023-05-29T03:45:39;6.20;;;4.77;;
9473;SDS011;8865;47.636;7.692;2023-05-29T03:48:05;6.43;;;4.90;;
9473;SDS011;8865;47.636;7.692;2023-05-29T03:50:31;6.77;;;5.40;;
9473;SDS011;8865;47.636;7.692;2023-05-29T03:52:56;7.87;;;5.37;;
9473;SDS011;8865;47.636;7.692;2023-05-29T03:55:22;6.80;;;5.20;;
9473;SDS011;8865;47.636;7.692;2023-05-29T03:57:48;7.30;;;5.07;;
9473;SDS011;8865;47.636;7.692;2023-05-29T04:00:15;6.67;;;5.03;;
9473;SDS011;8865;47.636;7.692;2023-05-29T04:02:42;7.80;;;5.23;;
9473;SDS011;8865;47.636;7.692;2023-05-29T04:05:08;6.73;;;4.97;;
9473;SDS011;8865;47.636;7.692;2023-05-29T04:07:38;8.07;;;5.40;;
9473;SDS011;8865;47.636;7.692;2023-05-29T04:10:05;7.73;;;5.07;;
9473;SDS011;8865;47.636;7.692;2023-05-29T04:12:32;7.33;;;5.60;;
9473;SDS011;8865;47.636;7.692;2023-05-29T04:14:58;8.37;;;5.33;;
9473;SDS011;8865;47.636;7.692;2023-05-29T04:17:24;7.70;;;5.43;;
9473;SDS011;8865;47.636;7.692;2023-05-29T04:19:50;7.27;;;5.33;;
9473;SDS011;8865;47.636;7.692;2023-05-29T04:22:16;6.80;;;5.23;;
9473;SDS011;8865;47.636;7.692;2023-05-29T04:24:43;7.30;;;5.40;;
9473;SDS011;8865;47.636;7.692;2023-05-29T04:27:09;9.03;;;5.50;;
9473;SDS011;8865;47.636;7.692;2023-05-29T04:29:38;7.20;;;5.50;;
9473;SDS011;8865;47.636;7.692;2023-05-29T04:32:06;7.70;;;5.30;;
9473;SDS011;8865;47.636;7.692;2023-05-29T04:34:34;9.40;;;5.17;;
9473;SDS011;8865;47.636;7.692;2023-05-29T04:37:00;7.10;;;5.17;;
9473;SDS011;8865;47.636;7.692;2023-05-29T04:39:26;7.67;;;5.20;;
9473;SDS011;8865;47.636;7.692;2023-05-29T04:41:52;8.23;;;5.40;;
9473;SDS011;8865;47.636;7.692;2023-05-29T04:44:18;8.67;;;5.77;;
9473;SDS011;8865;47.636;7.692;2023-05-29T04:46:44;6.30;;;5.10;;
9473;SDS011;8865;47.636;7.692;2023-05-29T04:49:11;5.97;;;4.93;;
9473;SDS011;8865;47.636;7.692;2023-05-29T04:51:38;6.93;;;5.07;;
9473;SDS011;8865;47.636;7.692;2023-05-29T04:54:07;7.13;;;5.17;;
9473;SDS011;8865;47.636;7.692;2023-05-29T04:56:37;7.27;;;5.30;;
9473;SDS011;8865;47.636;7.692;2023-05-29T04:59:06;6.97;;;5.17;;
9473;SDS011;8865;47.636;7.692;2023-05-29T05:01:34;6.40;;;5.40;;
9473;SDS011;8865;47.636;7.692;2023-05-29T05:04:00;8.27;;;5.17;;
9473;SDS011;8865;47.636;7.692;2023-05-29T05:06:27;6.60;;;5.20;;
9473;SDS011;8865;47.636;7.692;2023-05-29T05:08:54;8.03;;;5.53;;
9473;SDS011;8865;47.636;7.692;2023-05-29T05:11:21;8.30;;;5.97;;
9473;SDS011;8865;47.636;7.692;2023-05-29T05:13:47;9.23;;;6.50;;
9473;SDS011;8865;47.636;7.692;2023-05-29T05:16:14;10.77;;;7.93;;
9473;SDS011;8865;47.636;7.692;2023-05-29T05:18:40;10.50;;;8.17;;
9473;SDS011;8865;47.636;7.692;2023-05-29T05:21:06;8.87;;;6.90;;
9473;SDS011;8865;47.636;7.692;2023-05-29T05:23:32;7.60;;;6.53;;
9473;SDS011;8865;47.636;7.692;2023-05-29T05:25:59;9.80;;;5.97;;
9473;SDS011;8865;47.636;7.692;2023-05-29T05:28:25;7.53;;;5.43;;
9473;SDS011;8865;47.636;7.692;2023-05-29T05:30:51;6.40;;;5.20;;
9473;SDS011;8865;47.636;7.692;2023-05-29T05:33:17;6.27;;;5.13;;
9473;SDS011;8865;47.636;7.692;2023-05-29T05:35:43;7.33;;;5.30;;
9473;SDS011;8865;47.636;7.692;2023-05-29T05:38:09;7.10;;;5.67;;
9473;SDS011;8865;47.636;7.692;2023-05-29T05:40:35;7.43;;;5.73;;
9473;SDS011;8865;47.636;7.692;2023-05-29T05:43:01;6.80;;;5.40;;
9473;SDS011;8865;47.636;7.692;2023-05-29T05:45:27;7.87;;;5.43;;
9473;SDS011;8865;47.636;7.692;2023-05-29T05:47:53;9.47;;;5.77;;
9473;SDS011;8865;47.636;7.692;2023-05-29T05:50:19;8.83;;;5.63;;
9473;SDS011;8865;47.636;7.692;2023-05-29T05:52:46;7.43;;;5.33;;
9473;SDS011;8865;47.636;7.692;2023-05-29T05:55:12;6.67;;;5.40;;
9473;SDS011;8865;47.636;7.692;2023-05-29T05:57:38;7.53;;;5.20;;
9473;SDS011;8865;47.636;7.692;2023-05-29T06:00:05;10.00;;;5.97;;
9473;SDS011;8865;47.636;7.692;2023-05-29T06:02:40;6.47;;;5.80;;
9473;SDS011;8865;47.636;7.692;2023-05-29T06:05:08;9.60;;;6.70;;
9473;SDS011;8865;47.636;7.692;2023-05-29T06:07:35;7.50;;;5.63;;
9473;SDS011;8865;47.636;7.692;2023-05-29T06:10:02;12.90;;;6.17;;
9473;SDS011;8865;47.636;7.692;2023-05-29T06:12:29;8.13;;;5.90;;
9473;SDS011;8865;47.636;7.692;2023-05-29T06:14:55;8.27;;;5.93;;
9473;SDS011;8865;47.636;7.692;2023-05-29T06:17:22;8.53;;;6.20;;
9473;SDS011;8865;47.636;7.692;2023-05-29T06:19:49;8.63;;;5.53;;
9473;SDS011;8865;47.636;7.692;2023-05-29T06:22:15;7.87;;;6.03;;
9473;SDS011;8865;47.636;7.692;2023-05-29T06:24:41;9.50;;;6.33;;
9473;SDS011;8865;47.636;7.692;2023-05-29T06:27:07;9.23;;;6.50;;
9473;SDS011;8865;47.636;7.692;2023-05-29T06:29:33;9.37;;;6.30;;
9473;SDS011;8865;47.636;7.692;2023-05-29T06:31:59;8.77;;;6.07;;
9473;SDS011;8865;47.636;7.692;2023-05-29T06:34:25;9.93;;;6.23;;
9473;SDS011;8865;47.636;7.692;2023-05-29T06:36:52;8.63;;;6.17;;
9473;SDS011;8865;47.636;7.692;2023-05-29T06:39:18;9.37;;;6.47;;
9473;SDS011;8865;47.636;7.692;2023-05-29T06:41:45;9.20;;;6.47;;
9473;SDS011;8865;47.636;7.692;2023-05-29T06:44:12;7.97;;;6.03;;
9473;SDS011;8865;47.636;7.692;2023-05-29T06:46:38;8.80;;;6.03;;
9473;SDS011;8865;47.636;7.692;2023-05-29T06:49:04;8.43;;;6.13;;
9473;SDS011;8865;47.636;7.692;2023-05-29T06:51:30;8.20;;;6.20;;
9473;SDS011;8865;47.636;7.692;2023-05-29T06:53:57;10.27;;;6.17;;
9473;SDS011;8865;47.636;7.692;2023-05-29T06:56:23;9.07;;;6.20;;
9473;SDS011;8865;47.636;7.692;2023-05-29T06:58:49;7.70;;;5.67;;
9473;SDS011;8865;47.636;7.692;2023-05-29T07:01:15;12.33;;;5.47;;
9473;SDS011;8865;47.636;7.692;2023-05-29T07:03:45;10.47;;;6.17;;
9473;SDS011;8865;47.636;7.692;2023-05-29T07:06:12;8.93;;;6.50;;
9473;SDS011;8865;47.636;7.692;2023-05-29T07:08:38;8.77;;;6.10;;
9473;SDS011;8865;47.636;7.692;2023-05-29T07:11:04;9.33;;;6.60;;
9473;SDS011;8865;47.636;7.692;2023-05-29T07:13:30;11.13;;;6.80;;
9473;SDS011;8865;47.636;7.692;2023-05-29T07:15:56;10.43;;;6.93;;
9473;SDS011;8865;47.636;7.692;2023-05-29T07:18:21;9.70;;;6.43;;
9473;SDS011;8865;47.636;7.692;2023-05-29T07:20:48;9.40;;;6.53;;
9473;SDS011;8865;47.636;7.692;2023-05-29T07:23:14;10.10;;;6.57;;
9473;SDS011;8865;47.636;7.692;2023-05-29T07:25:41;10.00;;;6.80;;
9473;SDS011;8865;47.636;7.692;2023-05-29T07:28:07;10.13;;;6.43;;
9473;SDS011;8865;47.636;7.692;2023-05-29T07:30:33;9.03;;;6.60;;
9473;SDS011;8865;47.636;7.692;2023-05-29T07:32:59;7.90;;;5.90;;
9473;SDS011;8865;47.636;7.692;2023-05-29T07:35:25;8.07;;;6.43;;
9473;SDS011;8865;47.636;7.692;2023-05-29T07:37:51;7.63;;;6.00;;
9473;SDS011;8865;47.636;7.692;2023-05-29T07:40:17;9.67;;;6.80;;
9473;SDS011;8865;47.636;7.692;2023-05-29T07:42:43;10.37;;;6.87;;
9473;SDS011;8865;47.636;7.692;2023-05-29T07:45:09;9.43;;;6.37;;
9473;SDS011;8865;47.636;7.692;2023-05-29T07:47:37;9.70;;;6.50;;
9473;SDS011;8865;47.636;7.692;2023-05-29T07:50:03;9.70;;;6.67;;
9473;SDS011;8865;47.636;7.692;2023-05-29T07:52:29;9.00;;;6.43;;
9473;SDS011;8865;47.636;7.692;2023-05-29T07:54:55;8.93;;;6.67;;
9473;SDS011;8865;47.636;7.692;2023-05-29T07:57:21;13.80;;;10.10;;
9473;SDS011;8865;47.636;7.692;2023-05-29T07:59:47;8.77;;;6.30;;
9473;SDS011;8865;47.636;7.692;2023-05-29T08:02:15;8.07;;;6.07;;
9473;SDS011;8865;47.636;7.692;2023-05-29T08:04:42;8.63;;;5.90;;
9473;SDS011;8865;47.636;7.692;2023-05-29T08:07:07;8.33;;;6.07;;
9473;SDS011;8865;47.636;7.692;2023-05-29T08:09:35;11.40;;;7.30;;
9473;SDS011;8865;47.636;7.692;2023-05-29T08:12:01;8.63;;;6.33;;
9473;SDS011;8865;47.636;7.692;2023-05-29T08:14:28;10.70;;;7.30;;
9473;SDS011;8865;47.636;7.692;2023-05-29T08:16:54;8.80;;;6.13;;
9473;SDS011;8865;47.636;7.692;2023-05-29T08:19:21;10.03;;;6.50;;
9473;SDS011;8865;47.636;7.692;2023-05-29T08:21:47;9.80;;;6.77;;
9473;SDS011;8865;47.636;7.692;2023-05-29T08:24:13;16.37;;;11.00;;
9473;SDS011;8865;47.636;7.692;2023-05-29T08:26:39;9.10;;;6.67;;
9473;SDS011;8865;47.636;7.692;2023-05-29T08:29:05;11.03;;;6.30;;
9473;SDS011;8865;47.636;7.692;2023-05-29T08:31:32;9.97;;;6.50;;
9473;SDS011;8865;47.636;7.692;2023-05-29T08:33:58;11.67;;;7.20;;
9473;SDS011;8865;47.636;7.692;2023-05-29T08:36:24;9.20;;;6.40;;
9473;SDS011;8865;47.636;7.692;2023-05-29T08:38:50;9.00;;;6.07;;
9473;SDS011;8865;47.636;7.692;2023-05-29T08:44:12;8.77;;;6.70;;
9473;SDS011;8865;47.636;7.692;2023-05-29T08:46:40;7.73;;;6.03;;
9473;SDS011;8865;47.636;7.692;2023-05-29T08:49:06;15.70;;;6.50;;
9473;SDS011;8865;47.636;7.692;2023-05-29T08:51:35;11.73;;;6.60;;
9473;SDS011;8865;47.636;7.692;2023-05-29T08:54:04;9.80;;;6.63;;
9473;SDS011;8865;47.636;7.692;2023-05-29T08:56:31;11.37;;;6.27;;
9473;SDS011;8865;47.636;7.692;2023-05-29T08:58:57;24.43;;;7.27;;
9473;SDS011;8865;47.636;7.692;2023-05-29T09:01:24;11.10;;;6.27;;
9473;SDS011;8865;47.636;7.692;2023-05-29T09:03:51;8.63;;;5.87;;
9473;SDS011;8865;47.636;7.692;2023-05-29T09:06:17;7.80;;;5.20;;
9473;SDS011;8865;47.636;7.692;2023-05-29T09:08:43;8.50;;;5.90;;
9473;SDS011;8865;47.636;7.692;2023-05-29T09:11:10;9.60;;;5.90;;
9473;SDS011;8865;47.636;7.692;2023-05-29T09:13:36;7.90;;;5.20;;
9473;SDS011;8865;47.636;7.692;2023-05-29T09:16:02;9.37;;;6.03;;
9473;SDS011;8865;47.636;7.692;2023-05-29T09:18:29;10.73;;;5.90;;
9473;SDS011;8865;47.636;7.692;2023-05-29T09:20:57;7.60;;;5.40;;
9473;SDS011;8865;47.636;7.692;2023-05-29T09:23:24;10.10;;;6.10;;
9473;SDS011;8865;47.636;7.692;2023-05-29T09:25:52;8.20;;;5.83;;
9473;SDS011;8865;47.636;7.692;2023-05-29T09:28:20;9.13;;;6.47;;
9473;SDS011;8865;47.636;7.692;2023-05-29T09:30:49;9.03;;;6.30;;
9473;SDS011;8865;47.636;7.692;2023-05-29T09:33:15;11.50;;;6.80;;
9473;SDS011;8865;47.636;7.692;2023-05-29T09:35:48;9.87;;;5.90;;
9473;SDS011;8865;47.636;7.692;2023-05-29T09:38:16;12.83;;;7.17;;
9473;SDS011;8865;47.636;7.692;2023-05-29T09:40:43;10.63;;;6.60;;
9473;SDS011;8865;47.636;7.692;2023-05-29T09:45:40;9.57;;;6.50;;
9473;SDS011;8865;47.636;7.692;2023-05-29T09:48:08;10.50;;;6.33;;
9473;SDS011;8865;47.636;7.692;2023-05-29T09:50:39;6.37;;;5.40;;
9473;SDS011;8865;47.636;7.692;2023-05-29T09:53:15;7.20;;;5.80;;
9473;SDS011;8865;47.636;7.692;2023-05-29T09:55:51;7.43;;;5.23;;
9473;SDS011;8865;47.636;7.692;2023-05-29T09:58:18;20.60;;;6.00;;
9473;SDS011;8865;47.636;7.692;2023-05-29T10:00:45;9.53;;;6.27;;
9473;SDS011;8865;47.636;7.692;2023-05-29T10:03:12;7.23;;;5.63;;
9473;SDS011;8865;47.636;7.692;2023-05-29T10:05:39;8.17;;;5.70;;
9473;SDS011;8865;47.636;7.692;2023-05-29T10:08:11;12.47;;;7.17;;
9473;SDS011;8865;47.636;7.692;2023-05-29T10:10:42;7.90;;;5.40;;
9473;SDS011;8865;47.636;7.692;2023-05-29T10:13:10;8.07;;;5.20;;
9473;SDS011;8865;47.636;7.692;2023-05-29T10:15:37;7.10;;;5.17;;
9473;SDS011;8865;47.636;7.692;2023-05-29T10:21:07;6.10;;;5.00;;
9473;SDS011;8865;47.636;7.692;2023-05-29T10:23:38;8.13;;;4.97;;
9473;SDS011;8865;47.636;7.692;2023-05-29T10:26:15;7.00;;;5.17;;
9473;SDS011;8865;47.636;7.692;2023-05-29T10:28:52;9.13;;;5.37;;
9473;SDS011;8865;47.636;7.692;2023-05-29T10:31:30;6.90;;;4.70;;
9473;SDS011;8865;47.636;7.692;2023-05-29T10:34:18;5.30;;;4.80;;
9473;SDS011;8865;47.636;7.692;2023-05-29T10:37:06;9.53;;;5.40;;
9473;SDS011;8865;47.636;7.692;2023-05-29T10:40:02;7.23;;;5.67;;
9473;SDS011;8865;47.636;7.692;2023-05-29T10:42:46;8.07;;;4.93;;
9473;SDS011;8865;47.636;7.692;2023-05-29T10:45:47;6.40;;;5.30;;
9473;SDS011;8865;47.636;7.692;2023-05-29T10:50:40;7.55;;;5.22;;
9473;SDS011;8865;47.636;7.692;2023-05-29T10:53:18;8.23;;;4.85;;
9473;SDS011;8865;47.636;7.692;2023-05-29T10:55:50;8.95;;;5.10;;
9473;SDS011;8865;47.636;7.692;2023-05-29T10:58:23;7.35;;;4.40;;
9473;SDS011;8865;47.636;7.692;2023-05-29T11:00:51;5.05;;;4.35;;
9473;SDS011;8865;47.636;7.692;2023-05-29T11:03:20;7.68;;;4.75;;
9473;SDS011;8865;47.636;7.692;2023-05-29T11:05:58;6.20;;;4.70;;
9473;SDS011;8865;47.636;7.692;2023-05-29T11:11:32;6.78;;;4.90;;
9473;SDS011;8865;47.636;7.692;2023-05-29T11:14:03;13.65;;;5.35;;
9473;SDS011;8865;47.636;7.692;2023-05-29T11:18:56;5.60;;;4.72;;
9473;SDS011;8865;47.636;7.692;2023-05-29T11:23:52;5.10;;;4.18;;
9473;SDS011;8865;47.636;7.692;2023-05-29T11:26:21;4.95;;;4.13;;
9473;SDS011;8865;47.636;7.692;2023-05-29T11:28:48;4.82;;;4.20;;
9473;SDS011;8865;47.636;7.692;2023-05-29T11:31:15;5.93;;;4.38;;
9473;SDS011;8865;47.636;7.692;2023-05-29T11:33:47;5.25;;;4.00;;
9473;SDS011;8865;47.636;7.692;2023-05-29T11:36:18;5.18;;;4.30;;
9473;SDS011;8865;47.636;7.692;2023-05-29T11:38:47;5.28;;;4.32;;
9473;SDS011;8865;47.636;7.692;2023-05-29T11:41:13;7.63;;;4.70;;
9473;SDS011;8865;47.636;7.692;2023-05-29T11:43:42;5.75;;;4.32;;
9473;SDS011;8865;47.636;7.692;2023-05-29T11:46:18;5.45;;;4.25;;
9473;SDS011;8865;47.636;7.692;2023-05-29T11:48:45;5.75;;;4.50;;
9473;SDS011;8865;47.636;7.692;2023-05-29T11:51:12;4.60;;;4.15;;
9473;SDS011;8865;47.636;7.692;2023-05-29T11:53:42;4.78;;;4.25;;
9473;SDS011;8865;47.636;7.692;2023-05-29T11:56:09;5.20;;;4.65;;
9473;SDS011;8865;47.636;7.692;2023-05-29T11:58:39;6.03;;;4.30;;
9473;SDS011;8865;47.636;7.692;2023-05-29T12:01:06;4.78;;;3.97;;
9473;SDS011;8865;47.636;7.692;2023-05-29T12:03:45;5.32;;;4.82;;
9473;SDS011;8865;47.636;7.692;2023-05-29T12:06:11;6.10;;;4.72;;
9473;SDS011;8865;47.636;7.692;2023-05-29T12:08:37;6.60;;;4.43;;
9473;SDS011;8865;47.636;7.692;2023-05-29T12:11:04;5.55;;;4.38;;
9473;SDS011;8865;47.636;7.692;2023-05-29T12:13:31;5.07;;;4.50;;
9473;SDS011;8865;47.636;7.692;2023-05-29T12:15:57;4.90;;;4.40;;
9473;SDS011;8865;47.636;7.692;2023-05-29T12:18:26;5.15;;;4.50;;
9473;SDS011;8865;47.636;7.692;2023-05-29T12:21:02;4.70;;;4.15;;
9473;SDS011;8865;47.636;7.692;2023-05-29T12:23:29;4.85;;;4.35;;
9473;SDS011;8865;47.636;7.692;2023-05-29T12:25:56;4.95;;;4.38;;
9473;SDS011;8865;47.636;7.692;2023-05-29T12:28:23;5.38;;;4.85;;
9473;SDS011;8865;47.636;7.692;2023-05-29T12:30:57;4.85;;;4.10;;
9473;SDS011;8865;47.636;7.692;2023-05-29T12:33:24;7.72;;;4.38;;
9473;SDS011;8865;47.636;7.692;2023-05-29T12:36:00;4.93;;;4.15;;
9473;SDS011;8865;47.636;7.692;2023-05-29T12:38:27;4.63;;;4.18;;
9473;SDS011;8865;47.636;7.692;2023-05-29T12:40:53;5.43;;;4.28;;
9473;SDS011;8865;47.636;7.692;2023-05-29T12:43:20;8.88;;;6.90;;
9473;SDS011;8865;47.636;7.692;2023-05-29T12:45:53;4.45;;;3.80;;
9473;SDS011;8865;47.636;7.692;2023-05-29T12:48:25;5.32;;;4.10;;
9473;SDS011;8865;47.636;7.692;2023-05-29T12:50:52;5.60;;;4.60;;
9473;SDS011;8865;47.636;7.692;2023-05-29T12:53:19;5.07;;;4.28;;
9473;SDS011;8865;47.636;7.692;2023-05-29T12:55:47;5.05;;;4.38;;
9473;SDS011;8865;47.636;7.692;2023-05-29T12:58:14;5.10;;;4.22;;
9473;SDS011;8865;47.636;7.692;2023-05-29T13:00:42;4.85;;;4.43;;
9473;SDS011;8865;47.636;7.692;2023-05-29T13:03:09;5.72;;;4.30;;
9473;SDS011;8865;47.636;7.692;2023-05-29T13:05:38;4.40;;;4.00;;
9473;SDS011;8865;47.636;7.692;2023-05-29T13:08:04;6.38;;;4.15;;
9473;SDS011;8865;47.636;7.692;2023-05-29T13:10:32;7.05;;;4.43;;
9473;SDS011;8865;47.636;7.692;2023-05-29T13:13:00;5.10;;;4.40;;
9473;SDS011;8865;47.636;7.692;2023-05-29T13:15:26;4.85;;;4.00;;
9473;SDS011;8865;47.636;7.692;2023-05-29T13:17:52;4.20;;;3.80;;
9473;SDS011;8865;47.636;7.692;2023-05-29T13:20:19;4.80;;;4.07;;
9473;SDS011;8865;47.636;7.692;2023-05-29T13:22:46;6.35;;;4.03;;
9473;SDS011;8865;47.636;7.692;2023-05-29T13:25:13;7.13;;;4.20;;
9473;SDS011;8865;47.636;7.692;2023-05-29T13:27:42;5.88;;;4.10;;
9473;SDS011;8865;47.636;7.692;2023-05-29T13:30:10;5.45;;;4.30;;
9473;SDS011;8865;47.636;7.692;2023-05-29T13:32:36;4.97;;;4.10;;
9473;SDS011;8865;47.636;7.692;2023-05-29T13:35:03;4.55;;;4.03;;
9473;SDS011;8865;47.636;7.692;2023-05-29T13:37:29;4.63;;;4.20;;
9473;SDS011;8865;47.636;7.692;2023-05-29T13:39:55;6.35;;;4.20;;
9473;SDS011;8865;47.636;7.692;2023-05-29T13:42:21;4.72;;;4.22;;
9473;SDS011;8865;47.636;7.692;2023-05-29T13:44:48;5.03;;;3.63;;
9473;SDS011;8865;47.636;7.692;2023-05-29T13:47:14;5.80;;;4.30;;
9473;SDS011;8865;47.636;7.692;2023-05-29T13:49:42;4.93;;;3.92;;
9473;SDS011;8865;47.636;7.692;2023-05-29T13:52:08;4.78;;;4.10;;
9473;SDS011;8865;47.636;7.692;2023-05-29T13:54:35;4.75;;;3.70;;
9473;SDS011;8865;47.636;7.692;2023-05-29T13:57:01;4.43;;;4.00;;
9473;SDS011;8865;47.636;7.692;2023-05-29T13:59:29;4.32;;;3.92;;
9473;SDS011;8865;47.636;7.692;2023-05-29T14:01:56;5.68;;;4.32;;
9473;SDS011;8865;47.636;7.692;2023-05-29T14:04:22;5.25;;;4.07;;
9473;SDS011;8865;47.636;7.692;2023-05-29T14:06:48;5.07;;;4.15;;
9473;SDS011;8865;47.636;7.692;2023-05-29T14:09:14;5.90;;;4.70;;
9473;SDS011;8865;47.636;7.692;2023-05-29T14:11:40;5.07;;;3.95;;
9473;SDS011;8865;47.636;7.692;2023-05-29T14:14:06;5.25;;;4.20;;
9473;SDS011;8865;47.636;7.692;2023-05-29T14:16:33;4.80;;;4.30;;
9473;SDS011;8865;47.636;7.692;2023-05-29T14:18:59;5.00;;;4.05;;
9473;SDS011;8865;47.636;7.692;2023-05-29T14:21:25;4.13;;;3.72;;
9473;SDS011;8865;47.636;7.692;2023-05-29T14:23:51;4.78;;;3.90;;
9473;SDS011;8865;47.636;7.692;2023-05-29T14:26:17;5.35;;;4.10;;
9473;SDS011;8865;47.636;7.692;2023-05-29T14:28:43;4.30;;;3.90;;
9473;SDS011;8865;47.636;7.692;2023-05-29T14:31:10;6.47;;;3.75;;
9473;SDS011;8865;47.636;7.692;2023-05-29T14:33:36;4.10;;;3.70;;
9473;SDS011;8865;47.636;7.692;2023-05-29T14:36:05;4.43;;;3.83;;
9473;SDS011;8865;47.636;7.692;2023-05-29T14:38:31;4.30;;;3.72;;
9473;SDS011;8865;47.636;7.692;2023-05-29T14:40:57;4.82;;;3.55;;
9473;SDS011;8865;47.636;7.692;2023-05-29T14:43:23;5.47;;;4.15;;
9473;SDS011;8865;47.636;7.692;2023-05-29T14:45:49;4.22;;;3.83;;
9473;SDS011;8865;47.636;7.692;2023-05-29T14:48:15;4.15;;;3.65;;
9473;SDS011;8865;47.636;7.692;2023-05-29T14:50:42;9.40;;;4.13;;
9473;SDS011;8865;47.636;7.692;2023-05-29T14:53:08;3.55;;;3.25;;
9473;SDS011;8865;47.636;7.692;2023-05-29T14:55:34;5.95;;;3.80;;
9473;SDS011;8865;47.636;7.692;2023-05-29T14:58:03;5.85;;;3.80;;
9473;SDS011;8865;47.636;7.692;2023-05-29T15:00:29;5.70;;;3.80;;
9473;SDS011;8865;47.636;7.692;2023-05-29T15:02:56;3.90;;;3.50;;
9473;SDS011;8865;47.636;7.692;2023-05-29T15:05:25;4.10;;;3.70;;
9473;SDS011;8865;47.636;7.692;2023-05-29T15:07:52;5.07;;;4.00;;
9473;SDS011;8865;47.636;7.692;2023-05-29T15:10:20;4.68;;;3.97;;
9473;SDS011;8865;47.636;7.692;2023-05-29T15:12:46;4.47;;;3.60;;
9473;SDS011;8865;47.636;7.692;2023-05-29T15:15:12;3.72;;;3.15;;
9473;SDS011;8865;47.636;7.692;2023-05-29T15:17:38;3.63;;;3.33;;
9473;SDS011;8865;47.636;7.692;2023-05-29T15:20:05;3.72;;;3.42;;
9473;SDS011;8865;47.636;7.692;2023-05-29T15:22:31;3.92;;;3.50;;
9473;SDS011;8865;47.636;7.692;2023-05-29T15:24:57;4.60;;;3.53;;
9473;SDS011;8865;47.636;7.692;2023-05-29T15:27:23;3.75;;;3.45;;
9473;SDS011;8865;47.636;7.692;2023-05-29T15:29:52;3.65;;;3.30;;
9473;SDS011;8865;47.636;7.692;2023-05-29T15:32:18;3.65;;;3.35;;
9473;SDS011;8865;47.636;7.692;2023-05-29T15:34:44;3.83;;;3.40;;
9473;SDS011;8865;47.636;7.692;2023-05-29T15:37:10;3.53;;;3.22;;
9473;SDS011;8865;47.636;7.692;2023-05-29T15:39:37;5.68;;;3.55;;
9473;SDS011;8865;47.636;7.692;2023-05-29T15:42:03;4.65;;;3.40;;
9473;SDS011;8865;47.636;7.692;2023-05-29T15:44:31;3.92;;;3.47;;